Time;durP1;ratioP1;P1;durP2;ratioP2;P2;SDS_P1;SDS_P2;PMS_P1;PMS_P2;Temp;Humidity;BMP_temperature;BMP_pressure;BME280_temperature;BME280_humidity;BME280_pressure;Samples;Min_cycle;Max_cycle;Signal;HPM_P1;HPM_P2
2022/05/09 00:00:58;;;;;;;18.42;6.72;;;7.40;81.50;;;;;;5098102;28;20043;-80
2022/05/09 00:03:24;;;;;;;14.10;6.50;;;7.30;81.70;;;;;;5081216;28;20487;-78
2022/05/09 00:05:50;;;;;;;14.57;7.38;;;7.30;81.80;;;;;;5098005;28;20074;-79
2022/05/09 00:08:15;;;;;;;15.68;5.85;;;7.30;81.90;;;;;;5097743;28;20043;-77
2022/05/09 00:10:41;;;;;;;14.13;6.40;;;7.30;81.40;;;;;;5081147;28;20498;-76
2022/05/09 00:13:07;;;;;;;13.73;6.63;;;7.20;81.70;;;;;;5080975;28;20403;-77
2022/05/09 00:15:32;;;;;;;16.88;6.60;;;7.10;82.10;;;;;;5080885;28;20414;-78
2022/05/09 00:17:58;;;;;;;15.13;6.85;;;7.10;82.10;;;;;;5097579;28;20043;-77
2022/05/09 00:20:24;;;;;;;12.60;5.60;;;7.10;82.00;;;;;;5097923;28;20045;-77
2022/05/09 00:22:55;;;;;;;14.55;6.90;;;7.10;81.90;;;;;;5097649;28;20035;-76
2022/05/09 00:25:24;;;;;;;13.98;6.75;;;7.00;81.70;;;;;;5097540;28;20089;-80
2022/05/09 00:27:50;;;;;;;15.05;7.15;;;7.00;82.10;;;;;;5080340;28;20039;-79
2022/05/09 00:30:16;;;;;;;13.57;6.50;;;7.00;81.90;;;;;;5096182;28;20039;-77
2022/05/09 00:32:42;;;;;;;15.75;6.78;;;7.00;81.80;;;;;;5080360;28;20122;-76
2022/05/09 00:35:09;;;;;;;13.38;5.95;;;7.00;82.00;;;;;;5097419;28;20078;-76
2022/05/09 00:37:36;;;;;;;17.85;6.22;;;6.90;82.30;;;;;;5079982;28;20050;-77
2022/05/09 00:40:05;;;;;;;14.90;6.10;;;6.80;82.60;;;;;;5079692;28;20139;-78
2022/05/09 00:42:31;;;;;;;16.45;6.65;;;6.90;82.80;;;;;;5096800;28;20040;-78
2022/05/09 00:44:57;;;;;;;14.90;6.18;;;6.90;82.80;;;;;;5096774;28;20035;-80
2022/05/09 00:47:23;;;;;;;15.05;6.47;;;7.00;82.60;;;;;;5096806;28;20046;-80
2022/05/09 00:49:55;;;;;;;15.50;6.95;;;6.90;82.80;;;;;;5063510;28;20396;-76
2022/05/09 00:52:35;;;;;;;12.48;5.93;;;6.90;82.70;;;;;;5096883;28;20044;-76
2022/05/09 00:55:06;;;;;;;11.07;5.45;;;6.90;82.70;;;;;;5079871;28;20165;-79
2022/05/09 00:57:50;;;;;;;16.02;5.05;;;6.90;83.00;;;;;;5096674;28;19926;-78
2022/05/09 01:00:18;;;;;;;10.50;5.13;;;7.00;83.20;;;;;;5097004;28;20035;-79
2022/05/09 01:02:50;;;;;;;12.32;5.72;;;6.90;83.00;;;;;;5097163;28;20031;-78
2022/05/09 01:05:17;;;;;;;12.05;6.13;;;6.90;82.90;;;;;;5079727;28;20036;-80
2022/05/09 01:07:43;;;;;;;9.07;5.10;;;6.80;82.60;;;;;;5079751;28;20043;-77
2022/05/09 01:10:14;;;;;;;9.88;4.88;;;6.80;83.00;;;;;;5096602;28;20035;-76
2022/05/09 01:12:42;;;;;;;12.95;5.05;;;6.80;83.10;;;;;;5096552;28;20039;-78
2022/05/09 01:15:12;;;;;;;10.73;4.57;;;6.80;83.60;;;;;;5096646;28;20051;-80
2022/05/09 01:17:39;;;;;;;12.05;5.18;;;6.80;83.60;;;;;;5096260;28;20039;-82
2022/05/09 01:20:07;;;;;;;12.05;4.85;;;6.90;84.20;;;;;;5079621;28;20118;-78
2022/05/09 01:22:35;;;;;;;10.70;4.18;;;6.90;83.90;;;;;;5096329;28;20109;-78
2022/05/09 01:25:04;;;;;;;9.40;4.65;;;6.90;84.00;;;;;;5079179;28;20046;-80
2022/05/09 01:27:31;;;;;;;10.82;4.25;;;6.90;84.20;;;;;;5096077;28;20040;-78
2022/05/09 01:30:09;;;;;;;9.18;4.10;;;6.90;84.30;;;;;;5096016;28;20086;-78
2022/05/09 01:32:42;;;;;;;9.57;4.50;;;7.00;84.10;;;;;;5079217;28;20622;-77
2022/05/09 01:35:14;;;;;;;8.13;4.60;;;7.00;84.10;;;;;;5079020;28;20071;-78
2022/05/09 01:37:43;;;;;;;11.07;4.55;;;7.00;84.20;;;;;;5095861;28;20035;-78
2022/05/09 01:40:10;;;;;;;8.95;4.05;;;6.90;84.60;;;;;;5095751;28;20051;-79
2022/05/09 01:42:36;;;;;;;12.85;4.68;;;6.90;84.50;;;;;;5095519;28;20081;-78
2022/05/09 01:45:06;;;;;;;8.77;4.35;;;6.90;84.50;;;;;;5096307;28;20032;-75
2022/05/09 01:50:16;;;;;;;8.15;4.05;;;6.80;84.50;;;;;;5095585;28;20048;-78
2022/05/09 01:52:42;;;;;;;7.40;3.35;;;6.80;84.50;;;;;;5078555;28;20040;-78
2022/05/09 01:55:08;;;;;;;7.40;4.00;;;6.80;84.20;;;;;;5078492;28;20068;-75
2022/05/09 01:57:34;;;;;;;5.95;3.60;;;6.70;84.10;;;;;;5095322;28;20419;-76
2022/05/09 01:59:59;;;;;;;7.88;3.95;;;6.70;84.30;;;;;;5078797;28;20093;-76
2022/05/09 02:02:25;;;;;;;8.15;3.72;;;6.70;84.10;;;;;;5078521;28;20464;-79
2022/05/09 02:04:51;;;;;;;8.95;4.68;;;6.60;84.20;;;;;;5061790;28;20078;-78
2022/05/09 02:07:19;;;;;;;9.35;3.53;;;6.60;84.30;;;;;;5095495;28;20039;-80
2022/05/09 02:09:47;;;;;;;5.97;3.67;;;6.60;84.30;;;;;;5095235;28;20047;-76
2022/05/09 02:12:14;;;;;;;6.15;3.75;;;6.50;84.30;;;;;;5078718;28;20396;-77
2022/05/09 02:14:40;;;;;;;9.43;4.18;;;6.50;84.20;;;;;;5078610;28;20047;-76
2022/05/09 02:17:07;;;;;;;9.13;3.85;;;6.50;83.90;;;;;;5078344;28;20042;-76
2022/05/09 02:19:34;;;;;;;11.82;4.68;;;6.50;84.20;;;;;;5079054;28;20106;-81
2022/05/09 02:22:00;;;;;;;12.10;4.88;;;6.40;84.60;;;;;;5095404;28;20049;-77
2022/05/09 02:24:27;;;;;;;13.48;5.60;;;6.50;84.90;;;;;;5095366;28;20123;-77
2022/05/09 02:26:54;;;;;;;11.95;5.07;;;6.50;85.00;;;;;;5094932;28;20725;-75
2022/05/09 02:29:20;;;;;;;11.90;5.15;;;6.50;85.00;;;;;;5095073;28;20050;-77
2022/05/09 02:31:46;;;;;;;9.52;5.25;;;6.40;85.10;;;;;;5078478;28;20078;-79
2022/05/09 02:34:12;;;;;;;12.05;5.07;;;6.40;85.30;;;;;;5095186;28;20433;-81
2022/05/09 02:36:38;;;;;;;10.25;5.00;;;6.40;85.10;;;;;;5078352;28;20044;-80
2022/05/09 02:39:04;;;;;;;13.82;5.70;;;6.40;85.20;;;;;;5095283;28;20450;-80
2022/05/09 02:41:30;;;;;;;18.70;6.65;;;6.40;85.10;;;;;;5078667;28;20105;-76
2022/05/09 02:43:56;;;;;;;12.15;6.03;;;6.40;85.00;;;;;;5095611;28;20051;-77
2022/05/09 02:46:22;;;;;;;10.05;5.30;;;6.40;85.10;;;;;;5078745;28;20468;-76
2022/05/09 02:48:48;;;;;;;15.38;5.47;;;6.40;85.10;;;;;;5095223;28;20560;-80
2022/05/09 02:51:13;;;;;;;12.32;5.55;;;6.40;84.80;;;;;;5095239;28;20044;-79
2022/05/09 02:53:39;;;;;;;9.82;5.88;;;6.30;84.90;;;;;;5096935;28;20044;-79
2022/05/09 02:56:06;;;;;;;16.02;6.35;;;6.40;84.90;;;;;;5099173;28;20040;-79
2022/05/09 02:58:32;;;;;;;11.65;5.45;;;6.40;85.20;;;;;;5099082;28;20046;-79
2022/05/09 03:00:58;;;;;;;11.93;6.68;;;6.30;85.10;;;;;;5082365;28;20127;-78
2022/05/09 03:06:08;;;;;;;12.77;6.68;;;6.30;85.10;;;;;;5098908;28;20044;-77
2022/05/09 03:08:34;;;;;;;12.10;6.05;;;6.20;85.10;;;;;;5099145;28;20044;-77
2022/05/09 03:11:03;;;;;;;10.55;5.80;;;6.20;84.80;;;;;;5082223;28;20395;-80
2022/05/09 03:13:29;;;;;;;17.33;7.40;;;6.10;84.80;;;;;;5081751;28;20081;-77
2022/05/09 03:15:56;;;;;;;13.75;7.20;;;6.00;84.70;;;;;;5081852;28;20048;-80
2022/05/09 03:18:24;;;;;;;10.43;6.50;;;5.90;84.80;;;;;;5081897;28;20036;-76
2022/05/09 03:20:51;;;;;;;14.15;7.20;;;5.80;84.90;;;;;;5098743;28;20039;-77
2022/05/09 03:23:17;;;;;;;14.43;7.15;;;5.70;84.90;;;;;;5098458;28;20040;-77
2022/05/09 03:25:43;;;;;;;12.68;7.00;;;5.60;84.80;;;;;;5098533;28;20052;-80
2022/05/09 03:28:12;;;;;;;9.88;5.78;;;5.60;84.90;;;;;;5098585;28;20047;-76
2022/05/09 03:30:38;;;;;;;7.78;4.38;;;5.50;84.90;;;;;;5098546;28;20491;-76
2022/05/09 03:33:06;;;;;;;4.97;2.97;;;5.50;85.10;;;;;;5082045;28;20035;-79
2022/05/09 03:35:33;;;;;;;3.50;2.58;;;5.40;85.10;;;;;;5098419;28;20047;-78
2022/05/09 03:37:58;;;;;;;3.78;2.47;;;5.40;85.20;;;;;;5098092;28;20118;-79
2022/05/09 03:40:24;;;;;;;6.85;3.60;;;5.40;85.40;;;;;;5080792;28;20159;-78
2022/05/09 03:42:50;;;;;;;6.25;2.78;;;5.40;85.50;;;;;;5081086;28;20035;-76
2022/05/09 03:45:16;;;;;;;3.63;2.90;;;5.30;85.40;;;;;;5097852;28;20035;-78
2022/05/09 03:47:42;;;;;;;4.88;2.22;;;5.30;85.40;;;;;;5081118;28;20046;-81
2022/05/09 03:50:11;;;;;;;2.80;2.20;;;5.30;85.50;;;;;;5064192;28;20031;-78
2022/05/09 03:52:37;;;;;;;5.40;2.42;;;5.20;85.50;;;;;;5097960;28;20035;-80
2022/05/09 03:55:03;;;;;;;4.90;2.88;;;5.20;85.40;;;;;;5097957;28;20535;-79
2022/05/09 03:57:28;;;;;;;5.45;3.30;;;5.30;85.70;;;;;;5080670;28;20395;-78
2022/05/09 03:59:54;;;;;;;5.53;3.03;;;5.30;86.60;;;;;;5098206;28;20187;-77
2022/05/09 04:02:20;;;;;;;7.80;3.40;;;5.40;86.70;;;;;;5080948;28;20520;-77
2022/05/09 04:04:45;;;;;;;6.50;3.78;;;5.40;86.50;;;;;;5097677;28;20047;-79
2022/05/09 04:07:11;;;;;;;6.55;4.05;;;5.40;86.50;;;;;;5081078;28;20040;-79
2022/05/09 04:09:36;;;;;;;6.35;3.38;;;5.40;86.30;;;;;;5081397;28;20074;-74
2022/05/09 04:12:03;;;;;;;8.77;3.80;;;5.40;86.30;;;;;;5064406;28;20052;-75
2022/05/09 04:17:14;;;;;;;5.22;3.10;;;5.50;86.80;;;;;;5097293;28;20047;-76
2022/05/09 04:19:41;;;;;;;7.40;4.20;;;5.60;86.60;;;;;;5097608;28;20498;-76
2022/05/09 04:22:07;;;;;;;7.47;3.65;;;5.60;86.50;;;;;;5097661;28;20042;-78
2022/05/09 04:24:33;;;;;;;7.72;3.63;;;5.60;86.40;;;;;;5097394;28;20035;-76
2022/05/09 04:27:00;;;;;;;5.32;3.55;;;5.60;86.30;;;;;;5097068;28;20047;-77
2022/05/09 04:29:27;;;;;;;5.00;3.60;;;5.60;86.40;;;;;;5097510;28;20195;-77
2022/05/09 04:31:53;;;;;;;5.25;2.97;;;5.60;86.30;;;;;;5080443;28;20051;-78
2022/05/09 04:34:19;;;;;;;6.47;3.58;;;5.60;86.30;;;;;;5080224;28;20062;-79
2022/05/09 04:36:45;;;;;;;4.70;2.70;;;5.60;86.50;;;;;;5080350;28;20453;-75
2022/05/09 04:39:11;;;;;;;3.65;2.63;;;5.60;86.50;;;;;;5097137;28;20039;-75
2022/05/09 04:41:36;;;;;;;4.78;3.28;;;5.50;86.70;;;;;;5063381;28;20063;-78
2022/05/09 04:44:05;;;;;;;7.53;3.42;;;5.60;87.10;;;;;;5097304;28;20104;-76
2022/05/09 04:46:32;;;;;;;6.30;3.45;;;5.60;87.30;;;;;;5096842;28;20043;-75
2022/05/09 04:48:58;;;;;;;7.68;4.22;;;5.60;87.20;;;;;;5097343;28;20386;-75
2022/05/09 04:51:24;;;;;;;6.53;4.20;;;5.60;87.10;;;;;;5079739;28;20039;-77
2022/05/09 04:53:49;;;;;;;7.30;4.15;;;5.70;87.10;;;;;;5080202;28;20031;-78
2022/05/09 04:56:17;;;;;;;10.25;4.10;;;5.80;87.20;;;;;;5063229;28;20483;-77
2022/05/09 04:58:42;;;;;;;4.72;3.78;;;5.80;87.40;;;;;;5079897;28;20035;-75
2022/05/09 05:01:09;;;;;;;6.57;3.95;;;5.90;87.30;;;;;;5096580;28;20042;-78
2022/05/09 05:03:34;;;;;;;9.50;4.35;;;5.90;87.60;;;;;;5096744;28;20039;-75
2022/05/09 05:06:01;;;;;;;6.45;4.57;;;6.00;87.40;;;;;;5096451;28;20054;-77
2022/05/09 05:08:33;;;;;;;12.90;5.68;;;6.10;87.30;;;;;;5079994;28;20395;-76
2022/05/09 05:10:59;;;;;;;14.70;5.93;;;6.10;87.50;;;;;;5096849;28;20189;-76
2022/05/09 05:13:26;;;;;;;17.35;6.40;;;6.10;87.40;;;;;;5096569;28;20055;-75
2022/05/09 05:15:53;;;;;;;14.20;6.82;;;6.10;87.40;;;;;;5095207;28;20051;-78
2022/05/09 05:18:26;;;;;;;16.40;7.13;;;6.20;87.20;;;;;;5096169;28;20141;-77
2022/05/09 05:20:53;;;;;;;19.63;7.30;;;6.30;87.30;;;;;;5079578;28;20042;-77
2022/05/09 05:23:19;;;;;;;13.77;7.50;;;6.30;87.40;;;;;;5096435;28;20120;-78
2022/05/09 05:25:46;;;;;;;11.20;5.82;;;6.40;87.40;;;;;;5079302;28;20625;-79
2022/05/09 05:28:15;;;;;;;9.88;4.70;;;6.50;87.70;;;;;;5096247;28;20096;-75
2022/05/09 05:30:42;;;;;;;12.52;5.15;;;6.60;87.90;;;;;;5096187;28;20415;-78
2022/05/09 05:33:08;;;;;;;18.58;7.22;;;6.60;87.80;;;;;;5096077;28;20047;-78
2022/05/09 05:35:34;;;;;;;18.25;6.03;;;6.70;87.60;;;;;;5095753;28;20043;-77
2022/05/09 05:38:00;;;;;;;15.73;7.60;;;6.90;87.90;;;;;;5079441;28;20456;-77
2022/05/09 05:40:26;;;;;;;16.75;8.10;;;7.00;88.00;;;;;;5095653;28;20058;-79
2022/05/09 05:42:54;;;;;;;15.68;8.13;;;7.10;87.70;;;;;;5096045;28;20044;-76
2022/05/09 05:45:23;;;;;;;17.38;6.53;;;7.10;87.10;;;;;;5096136;28;20090;-76
2022/05/09 05:47:51;;;;;;;17.17;7.60;;;7.30;87.20;;;;;;5096253;28;20041;-77
2022/05/09 05:50:18;;;;;;;18.00;8.82;;;7.40;87.80;;;;;;5096110;28;20036;-76
2022/05/09 05:52:44;;;;;;;24.08;9.40;;;7.50;88.30;;;;;;5079682;28;20080;-76
2022/05/09 05:55:10;;;;;;;17.63;7.75;;;7.70;89.50;;;;;;5084438;28;20574;-76
2022/05/09 05:57:38;;;;;;;18.38;7.88;;;7.80;88.70;;;;;;5084128;28;20479;-75
2022/05/09 06:00:18;;;;;;;17.85;8.13;;;7.90;88.50;;;;;;5116089;28;20066;-75
2022/05/09 06:02:45;;;;;;;14.80;6.68;;;8.10;87.80;;;;;;5116206;27;20031;-77
2022/05/09 06:05:13;;;;;;;13.02;7.57;;;8.20;86.80;;;;;;5103688;28;20039;-76
2022/05/09 06:07:40;;;;;;;15.90;7.65;;;8.30;86.50;;;;;;5097982;28;20380;-75
2022/05/09 06:10:08;;;;;;;22.08;9.38;;;8.50;87.80;;;;;;5096242;28;20115;-76
2022/05/09 06:12:34;;;;;;;19.00;8.68;;;8.50;87.00;;;;;;5085441;28;20040;-75
2022/05/09 06:17:44;;;;;;;19.30;7.55;;;8.70;86.30;;;;;;5099838;28;20319;-76
2022/05/09 06:20:11;;;;;;;16.80;7.65;;;8.90;85.70;;;;;;5100654;28;20716;-76
2022/05/09 06:22:38;;;;;;;17.00;7.82;;;9.00;86.70;;;;;;5104396;28;20057;-75
2022/05/09 06:25:07;;;;;;;17.42;6.13;;;9.10;86.20;;;;;;5084323;28;20043;-79
2022/05/09 06:27:32;;;;;;;17.25;6.75;;;9.30;85.60;;;;;;5102196;27;20476;-75
2022/05/09 06:30:04;;;;;;;15.82;6.47;;;9.40;85.70;;;;;;5086161;27;20045;-76
2022/05/09 06:32:30;;;;;;;14.88;5.70;;;9.50;85.40;;;;;;5103990;27;20036;-76
2022/05/09 06:34:56;;;;;;;14.25;6.15;;;9.60;85.00;;;;;;5101978;27;20119;-78
2022/05/09 06:37:24;;;;;;;19.25;7.32;;;9.80;84.70;;;;;;5065201;27;20039;-74
2022/05/09 06:39:52;;;;;;;15.52;6.38;;;9.90;84.70;;;;;;5084440;27;20724;-77
2022/05/09 06:42:18;;;;;;;17.02;6.50;;;10.00;84.30;;;;;;5105415;27;20130;-75
2022/05/09 06:44:44;;;;;;;12.88;6.50;;;10.10;83.90;;;;;;5102196;27;20118;-75
2022/05/09 06:47:11;;;;;;;15.57;6.13;;;10.20;84.00;;;;;;5085217;27;20054;-74
2022/05/09 06:49:36;;;;;;;12.90;4.68;;;10.30;83.70;;;;;;5102579;27;20780;-76
2022/05/09 06:52:03;;;;;;;15.27;6.32;;;10.50;83.30;;;;;;5105702;27;20050;-78
2022/05/09 06:54:28;;;;;;;15.30;6.35;;;10.60;82.90;;;;;;5104071;27;20127;-75
2022/05/09 06:56:54;;;;;;;15.82;5.22;;;10.70;83.10;;;;;;5085266;27;20458;-77
2022/05/09 06:59:20;;;;;;;15.48;5.45;;;10.80;82.80;;;;;;5106933;27;20476;-77
2022/05/09 07:01:46;;;;;;;12.85;5.43;;;11.00;82.10;;;;;;5089030;27;20070;-77
2022/05/09 07:04:12;;;;;;;14.68;5.90;;;11.00;82.00;;;;;;5086218;27;20047;-76
2022/05/09 07:06:38;;;;;;;12.50;5.15;;;11.20;81.70;;;;;;5102036;27;20484;-78
2022/05/09 07:09:10;;;;;;;18.00;5.57;;;11.30;81.50;;;;;;5104026;27;20456;-75
2022/05/09 07:11:36;;;;;;;14.45;5.20;;;11.40;81.30;;;;;;5103525;27;20062;-78
2022/05/09 07:14:02;;;;;;;19.35;5.90;;;11.50;81.00;;;;;;5105526;27;20048;-76
2022/05/09 07:16:28;;;;;;;13.82;6.03;;;11.50;79.60;;;;;;5067939;27;20035;-78
2022/05/09 07:18:54;;;;;;;14.73;5.35;;;11.60;79.80;;;;;;5105467;27;20037;-76
2022/05/09 07:21:19;;;;;;;14.90;5.82;;;11.80;80.20;;;;;;5106603;27;20395;-77
2022/05/09 07:23:45;;;;;;;15.70;5.80;;;11.80;78.90;;;;;;5105950;27;20574;-76
2022/05/09 07:26:11;;;;;;;17.63;5.93;;;12.00;79.60;;;;;;5099880;27;20047;-78
2022/05/09 07:28:36;;;;;;;14.80;6.03;;;12.00;79.50;;;;;;5107340;27;20066;-77
2022/05/09 07:31:03;;;;;;;12.18;5.05;;;12.10;79.30;;;;;;5071787;27;20413;-79
2022/05/09 07:33:29;;;;;;;14.55;5.72;;;12.20;78.70;;;;;;5087033;27;20050;-77
2022/05/09 07:35:56;;;;;;;17.55;6.30;;;12.30;77.80;;;;;;5083363;27;20046;-77
2022/05/09 07:38:22;;;;;;;13.18;6.00;;;12.50;78.00;;;;;;5105047;27;20121;-76
2022/05/09 07:40:48;;;;;;;18.77;5.55;;;12.50;77.70;;;;;;5103030;27;20145;-75
2022/05/09 07:43:20;;;;;;;15.75;6.65;;;12.60;77.80;;;;;;5100350;27;20058;-79
2022/05/09 07:45:47;;;;;;;12.98;5.13;;;12.70;77.60;;;;;;5080307;28;20114;-77
2022/05/09 07:48:13;;;;;;;15.27;6.43;;;12.80;77.60;;;;;;5099101;27;20052;-78
2022/05/09 07:50:40;;;;;;;15.57;6.00;;;12.90;76.60;;;;;;5103970;27;20044;-77
2022/05/09 07:53:14;;;;;;;12.73;4.93;;;13.00;76.80;;;;;;5102865;27;20490;-76
2022/05/09 07:55:42;;;;;;;11.45;5.68;;;13.10;76.90;;;;;;5098150;27;20099;-74
2022/05/09 07:58:09;;;;;;;14.45;5.03;;;13.20;76.40;;;;;;5101014;27;20047;-80
2022/05/09 08:00:39;;;;;;;13.52;4.80;;;13.50;76.20;;;;;;5083920;27;20036;-76
2022/05/09 08:03:06;;;;;;;14.80;4.38;;;13.50;75.40;;;;;;5099116;27;20039;-74
2022/05/09 08:05:34;;;;;;;26.60;6.22;;;13.60;74.90;;;;;;5080507;27;20039;-79
2022/05/09 08:08:00;;;;;;;19.40;6.18;;;13.70;73.60;;;;;;5098824;27;20039;-76
2022/05/09 08:10:25;;;;;;;17.60;5.78;;;13.80;73.50;;;;;;5081031;27;20039;-76
2022/05/09 08:12:52;;;;;;;17.65;5.53;;;13.90;73.80;;;;;;5104077;27;20050;-77
2022/05/09 08:15:20;;;;;;;13.98;5.80;;;14.10;73.60;;;;;;5102381;27;20043;-75
2022/05/09 08:17:49;;;;;;;17.27;5.03;;;14.20;73.10;;;;;;5100586;27;20107;-76
2022/05/09 08:20:19;;;;;;;17.52;5.13;;;14.30;71.80;;;;;;5093577;27;20405;-79
2022/05/09 08:22:45;;;;;;;16.75;4.72;;;14.50;71.80;;;;;;5102457;27;20146;-78
2022/05/09 08:25:14;;;;;;;13.95;5.25;;;14.60;71.70;;;;;;5101535;27;20061;-75
2022/05/09 08:27:40;;;;;;;14.30;4.65;;;14.60;69.70;;;;;;5088421;27;20086;-75
2022/05/09 08:30:07;;;;;;;15.90;4.80;;;14.70;69.70;;;;;;5104984;27;20066;-77
2022/05/09 08:32:36;;;;;;;12.48;5.07;;;14.80;69.90;;;;;;5088151;27;20039;-76
2022/05/09 08:35:03;;;;;;;11.65;4.28;;;15.00;70.20;;;;;;5104214;27;20125;-76
2022/05/09 08:37:28;;;;;;;10.27;4.80;;;15.20;68.30;;;;;;5100115;27;20043;-78
2022/05/09 08:39:54;;;;;;;8.10;3.88;;;15.40;68.40;;;;;;5103076;27;20083;-75
2022/05/09 08:42:34;;;;;;;11.35;3.95;;;15.50;67.30;;;;;;5141318;27;20459;-78
2022/05/09 08:45:29;;;;;;;12.20;3.63;;;15.60;67.10;;;;;;5084472;27;20039;-77
2022/05/09 08:48:17;;;;;;;13.18;4.00;;;15.80;66.30;;;;;;5084934;27;20062;-76
2022/05/09 08:51:27;;;;;;;12.05;5.13;;;15.90;65.00;;;;;;5078736;28;20052;-78
2022/05/09 08:54:00;;;;;;;9.30;3.60;;;16.00;65.20;;;;;;5088965;27;20073;-77
2022/05/09 08:56:26;;;;;;;15.73;4.28;;;16.20;65.80;;;;;;5100306;27;20047;-75
2022/05/09 08:58:58;;;;;;;12.82;3.92;;;16.30;64.80;;;;;;5085818;28;20110;-76
2022/05/09 09:01:41;;;;;;;9.95;3.85;;;16.30;59.70;;;;;;5086503;27;20131;-77
2022/05/09 09:04:19;;;;;;;15.27;4.30;;;16.40;59.60;;;;;;5100118;27;20663;-75
2022/05/09 09:07:00;;;;;;;14.57;4.50;;;16.50;61.60;;;;;;5085604;27;20074;-77
2022/05/09 09:09:49;;;;;;;9.27;4.35;;;16.70;60.20;;;;;;5099683;28;20402;-75
2022/05/09 09:12:37;;;;;;;10.95;3.90;;;16.80;61.00;;;;;;5126513;27;20812;-75
2022/05/09 09:15:46;;;;;;;16.55;4.38;;;16.90;59.50;;;;;;5105477;28;20387;-74
2022/05/09 09:18:14;;;;;;;13.23;3.63;;;17.00;57.30;;;;;;5026696;28;20089;-78
2022/05/09 09:21:03;;;;;;;11.30;3.80;;;17.10;58.00;;;;;;5019914;28;20156;-78
2022/05/09 09:23:56;;;;;;;9.80;3.38;;;17.30;57.80;;;;;;5070334;28;21308;-80
2022/05/09 09:26:56;;;;;;;15.63;3.63;;;17.40;57.50;;;;;;5087326;28;20545;-78
2022/05/09 09:29:43;;;;;;;13.10;4.13;;;17.50;53.30;;;;;;5087743;28;20142;-76
2022/05/09 09:32:15;;;;;;;12.02;4.03;;;17.70;55.00;;;;;;5104363;28;20681;-77
2022/05/09 09:34:50;;;;;;;10.77;3.25;;;17.90;55.10;;;;;;5101547;28;20185;-79
2022/05/09 09:37:23;;;;;;;9.77;3.15;;;18.00;53.60;;;;;;5102032;28;20051;-80
2022/05/09 09:39:50;;;;;;;8.18;2.60;;;17.90;50.90;;;;;;5104437;28;20657;-75
2022/05/09 09:42:16;;;;;;;25.13;4.60;;;18.00;48.60;;;;;;5086994;28;20044;-80
2022/05/09 09:44:47;;;;;;;9.63;2.60;;;18.00;46.30;;;;;;5086302;28;20055;-78
2022/05/09 09:47:19;;;;;;;9.68;3.10;;;18.10;46.90;;;;;;5101658;28;21489;-78
2022/05/09 09:49:48;;;;;;;9.60;2.30;;;18.30;47.40;;;;;;5101558;28;20054;-77
2022/05/09 09:52:31;;;;;;;8.25;2.80;;;18.40;46.90;;;;;;5101404;28;20062;-77
2022/05/09 09:55:08;;;;;;;8.18;2.50;;;18.50;45.50;;;;;;5103124;28;20054;-77
2022/05/09 09:57:37;;;;;;;9.27;3.20;;;18.80;47.20;;;;;;5103440;28;20079;-77
2022/05/09 10:00:21;;;;;;;7.55;3.00;;;18.90;43.60;;;;;;5104237;28;20549;-80
2022/05/09 10:02:49;;;;;;;8.63;2.92;;;18.90;42.20;;;;;;5104332;28;20044;-80
2022/05/09 10:05:20;;;;;;;7.78;2.53;;;19.00;46.10;;;;;;5085756;28;20052;-77
2022/05/09 10:07:46;;;;;;;7.50;3.33;;;19.20;46.20;;;;;;5087046;28;20066;-78
2022/05/09 10:10:19;;;;;;;15.38;4.30;;;19.20;42.90;;;;;;5103701;28;20055;-80
2022/05/09 10:12:50;;;;;;;9.15;3.00;;;19.20;43.00;;;;;;5104057;28;20060;-77
2022/05/09 10:15:29;;;;;;;10.57;3.80;;;19.40;45.30;;;;;;5085677;28;20165;-81
2022/05/09 10:17:57;;;;;;;11.73;3.10;;;19.60;45.90;;;;;;5104164;28;20051;-77
2022/05/09 10:20:29;;;;;;;7.82;2.78;;;19.70;45.20;;;;;;5104037;28;20048;-78
2022/05/09 10:26:00;;;;;;;10.38;3.22;;;20.00;43.10;;;;;;5089715;28;20072;-78
2022/05/09 10:28:30;;;;;;;6.65;2.60;;;20.00;43.40;;;;;;5072570;28;20488;-80
2022/05/09 10:31:10;;;;;;;8.35;2.90;;;20.10;43.40;;;;;;5090268;28;20036;-80
2022/05/09 10:34:09;;;;;;;9.90;3.03;;;20.20;41.50;;;;;;5073369;28;20418;-78
2022/05/09 10:37:02;;;;;;;6.47;2.70;;;20.30;42.30;;;;;;5076365;28;20457;-80
2022/05/09 10:39:39;;;;;;;9.57;3.30;;;20.40;43.30;;;;;;5106846;28;20071;-78
2022/05/09 10:42:09;;;;;;;10.07;2.83;;;20.60;43.20;;;;;;5088826;28;20064;-77
2022/05/09 10:44:48;;;;;;;9.50;3.53;;;20.70;42.50;;;;;;5072378;28;20043;-79
2022/05/09 10:47:40;;;;;;;6.93;2.75;;;20.60;39.80;;;;;;5089392;28;20039;-78
2022/05/09 10:50:33;;;;;;;7.20;2.70;;;20.60;39.80;;;;;;5086681;28;20044;-78
2022/05/09 10:53:27;;;;;;;7.00;3.00;;;20.90;43.60;;;;;;5087890;28;20109;-78
2022/05/09 10:55:57;;;;;;;11.15;2.78;;;21.00;41.80;;;;;;5088454;28;20760;-78
2022/05/09 10:58:25;;;;;;;7.13;2.63;;;20.90;41.40;;;;;;5089775;28;20052;-80
2022/05/09 11:01:11;;;;;;;6.13;3.10;;;21.10;40.10;;;;;;5072403;28;20047;-78
2022/05/09 11:03:39;;;;;;;10.35;3.28;;;21.10;40.10;;;;;;5072718;28;20052;-78
2022/05/09 11:06:26;;;;;;;10.10;2.92;;;20.90;39.00;;;;;;5071025;28;20046;-79
2022/05/09 11:09:21;;;;;;;7.28;2.90;;;20.90;39.10;;;;;;5089889;28;20055;-77
2022/05/09 11:12:10;;;;;;;6.95;2.30;;;21.20;40.40;;;;;;5075681;28;20567;-77
2022/05/09 11:15:00;;;;;;;8.57;3.47;;;21.50;42.80;;;;;;5070328;28;20048;-76
2022/05/09 11:17:30;;;;;;;12.90;2.88;;;21.90;42.80;;;;;;5089509;28;20047;-77
2022/05/09 11:20:26;;;;;;;10.48;3.15;;;21.70;38.60;;;;;;5089713;28;20047;-80
2022/05/09 11:23:14;;;;;;;8.75;2.78;;;21.60;37.00;;;;;;5089295;28;20051;-78
2022/05/09 11:25:58;;;;;;;9.50;2.63;;;21.60;37.30;;;;;;5088325;28;20036;-81
2022/05/09 11:28:34;;;;;;;;;;;21.80;38.80;;;;;;5089366;28;20127;-76
2022/05/09 11:31:33;;;;;;;8.27;2.80;;;21.90;37.60;;;;;;5105360;28;19920;-79
2022/05/09 11:34:15;;;;;;;12.77;3.30;;;21.90;36.90;;;;;;5070099;28;20038;-81
2022/05/09 11:37:09;;;;;;;8.15;2.88;;;21.80;37.90;;;;;;5088208;28;20039;-78
2022/05/09 11:39:58;;;;;;;7.23;2.37;;;22.10;38.20;;;;;;5088913;28;20491;-81
2022/05/09 11:45:37;;;;;;;9.73;3.42;;;22.30;37.50;;;;;;5085181;28;20047;-80
2022/05/09 11:48:31;;;;;;;7.47;2.97;;;22.30;37.60;;;;;;5068593;28;20093;-78
2022/05/09 11:51:16;;;;;;;8.23;2.70;;;22.20;36.30;;;;;;5087328;28;20055;-77
2022/05/09 11:53:47;;;;;;;8.02;3.03;;;22.10;36.50;;;;;;5086403;28;20127;-80
2022/05/09 11:56:13;;;;;;;11.10;2.80;;;22.20;38.10;;;;;;5085868;28;20548;-80
2022/05/09 11:58:41;;;;;;;9.77;2.88;;;22.40;38.00;;;;;;5070680;28;20048;-80
2022/05/09 12:01:07;;;;;;;15.45;3.47;;;22.40;37.20;;;;;;5087988;28;20392;-81
2022/05/09 12:03:42;;;;;;;9.20;2.90;;;22.60;37.20;;;;;;5087445;28;20047;-77
2022/05/09 12:06:28;;;;;;;10.30;3.38;;;22.80;36.70;;;;;;5086046;28;20070;-81
2022/05/09 12:08:56;;;;;;;9.45;3.28;;;23.00;37.80;;;;;;5071075;28;20902;-78
2022/05/09 12:11:42;;;;;;;12.23;3.53;;;23.20;37.30;;;;;;5070414;28;20130;-79
2022/05/09 12:14:07;;;;;;;9.43;2.90;;;23.40;36.50;;;;;;5086535;28;20040;-76
2022/05/09 12:16:36;;;;;;;9.98;3.10;;;23.40;36.00;;;;;;5068986;28;20047;-77
2022/05/09 12:19:20;;;;;;;8.02;3.05;;;23.20;34.50;;;;;;5087378;28;20081;-77
2022/05/09 12:22:24;;;;;;;8.98;2.78;;;23.00;33.90;;;;;;5086767;28;20052;-78
2022/05/09 12:24:50;;;;;;;7.32;2.70;;;23.00;34.50;;;;;;5087405;28;20517;-80
2022/05/09 12:27:45;;;;;;;8.45;2.85;;;23.00;35.20;;;;;;5069726;28;20175;-78
2022/05/09 12:30:45;;;;;;;7.40;2.45;;;23.20;35.80;;;;;;5070466;28;20463;-79
2022/05/09 12:33:46;;;;;;;8.15;2.67;;;23.50;35.90;;;;;;5087410;28;20046;-80
2022/05/09 12:36:19;;;;;;;7.30;3.28;;;23.30;34.00;;;;;;5082443;28;20073;-78
2022/05/09 12:38:50;;;;;;;7.85;3.63;;;23.40;33.70;;;;;;5086125;28;20075;-79
2022/05/09 12:41:45;;;;;;;8.32;2.83;;;23.50;34.80;;;;;;5086778;28;20519;-76
2022/05/09 12:44:44;;;;;;;8.73;2.85;;;23.80;37.40;;;;;;5085543;28;20059;-76
2022/05/09 12:47:16;;;;;;;9.63;3.05;;;24.00;35.50;;;;;;5085696;28;20072;-78
2022/05/09 12:50:11;;;;;;;7.55;2.90;;;24.10;33.90;;;;;;5087500;28;20105;-81
2022/05/09 12:52:48;;;;;;;5.25;2.40;;;24.20;34.10;;;;;;5087562;28;20545;-77
2022/05/09 12:57:58;;;;;;;7.50;3.38;;;24.10;32.50;;;;;;5058156;28;20086;-80
2022/05/09 13:00:31;;;;;;;6.20;2.55;;;23.80;32.50;;;;;;5087225;28;20071;-75
2022/05/09 13:03:08;;;;;;;7.32;2.80;;;23.40;33.30;;;;;;5053568;28;20127;-79
2022/05/09 13:05:38;;;;;;;5.90;3.03;;;23.60;33.90;;;;;;5086232;28;20279;-77
2022/05/09 13:08:06;;;;;;;8.05;3.10;;;23.80;33.10;;;;;;5087523;28;20551;-81
2022/05/09 13:10:47;;;;;;;6.13;2.70;;;24.00;34.10;;;;;;5087222;28;20044;-81
2022/05/09 13:13:27;;;;;;;7.35;3.08;;;24.00;32.80;;;;;;5087714;28;20564;-78
2022/05/09 13:15:53;;;;;;;6.95;3.63;;;24.20;33.30;;;;;;5085666;28;21409;-79
2022/05/09 13:18:22;;;;;;;12.30;3.20;;;24.10;33.70;;;;;;5087439;28;20131;-79
2022/05/09 13:20:51;;;;;;;6.05;3.08;;;24.40;33.70;;;;;;5070224;28;20043;-81
2022/05/09 13:23:26;;;;;;;6.60;2.75;;;24.50;32.60;;;;;;5070165;28;20079;-80
2022/05/09 13:25:52;;;;;;;9.50;2.97;;;24.60;33.20;;;;;;5086272;28;20054;-79